Ten Mile, Mississippi
Current Conditions -  °F | °C
As of 5:53 AM on Monday 20 Oct 2014 (Local Time) from KGPT Reporting Station
Clear Clear  
Wind Chill: 52°   Ceiling: Unl
Heat Index: 52°   Visibility: 10mi
Dew Point: 48°   Wind: 3mph
Humidity: 86%   Direction: 360°N
Pressure: 30.03"   Gusts: NA
Location:  30.7239°N, 89.1669°W
Report Text: KGPT 201053Z AUTO 36003KT 10SM CLR 11/09 A3003 RMK AO2 SLP169 T01110089 TSNO
Loading
Personal Weather Stations






























Interactive Weather Map
Tropical Storm Tracking
New forecast layout! Learn more

10-Day Weather Forecast

Advertisements
Track Severe Weather on mobile